sensor_id;sensor_type;location;lat;lon;timestamp;P1;durP1;ratioP1;P2;durP2;ratioP2
54945;SDS011;40846;44.788;20.486;2023-04-28T00:01:16;20.55;;;9.60;;
54945;SDS011;40846;44.788;20.486;2023-04-28T00:03:44;21.38;;;9.73;;
54945;SDS011;40846;44.788;20.486;2023-04-28T00:06:12;21.30;;;10.13;;
54945;SDS011;40846;44.788;20.486;2023-04-28T00:08:39;21.83;;;9.75;;
54945;SDS011;40846;44.788;20.486;2023-04-28T00:11:09;22.40;;;11.73;;
54945;SDS011;40846;44.788;20.486;2023-04-28T00:13:35;26.98;;;11.82;;
54945;SDS011;40846;44.788;20.486;2023-04-28T00:16:01;26.15;;;10.35;;
54945;SDS011;40846;44.788;20.486;2023-04-28T00:18:27;27.70;;;10.52;;
54945;SDS011;40846;44.788;20.486;2023-04-28T00:20:56;19.95;;;10.05;;
54945;SDS011;40846;44.788;20.486;2023-04-28T00:23:22;23.70;;;10.18;;
54945;SDS011;40846;44.788;20.486;2023-04-28T00:25:51;25.70;;;10.13;;
54945;SDS011;40846;44.788;20.486;2023-04-28T00:28:17;19.67;;;8.70;;
54945;SDS011;40846;44.788;20.486;2023-04-28T00:30:43;19.60;;;7.82;;
54945;SDS011;40846;44.788;20.486;2023-04-28T00:33:10;23.33;;;10.00;;
54945;SDS011;40846;44.788;20.486;2023-04-28T00:35:36;20.35;;;9.48;;
54945;SDS011;40846;44.788;20.486;2023-04-28T00:38:02;29.58;;;10.02;;
54945;SDS011;40846;44.788;20.486;2023-04-28T00:40:35;21.98;;;9.77;;
54945;SDS011;40846;44.788;20.486;2023-04-28T00:43:02;26.15;;;9.65;;
54945;SDS011;40846;44.788;20.486;2023-04-28T00:45:28;24.50;;;10.15;;
54945;SDS011;40846;44.788;20.486;2023-04-28T00:47:55;24.98;;;9.75;;
54945;SDS011;40846;44.788;20.486;2023-04-28T00:50:25;26.65;;;10.93;;
54945;SDS011;40846;44.788;20.486;2023-04-28T00:52:51;27.13;;;9.93;;
54945;SDS011;40846;44.788;20.486;2023-04-28T00:55:17;20.08;;;9.35;;
54945;SDS011;40846;44.788;20.486;2023-04-28T00:57:44;19.98;;;8.20;;
54945;SDS011;40846;44.788;20.486;2023-04-28T01:00:10;26.45;;;8.98;;
54945;SDS011;40846;44.788;20.486;2023-04-28T01:02:37;16.70;;;7.75;;
54945;SDS011;40846;44.788;20.486;2023-04-28T01:05:03;23.85;;;8.40;;
54945;SDS011;40846;44.788;20.486;2023-04-28T01:07:29;26.85;;;8.98;;
54945;SDS011;40846;44.788;20.486;2023-04-28T01:09:55;25.45;;;9.00;;
54945;SDS011;40846;44.788;20.486;2023-04-28T01:12:21;19.27;;;8.60;;
54945;SDS011;40846;44.788;20.486;2023-04-28T01:14:48;26.98;;;8.38;;
54945;SDS011;40846;44.788;20.486;2023-04-28T01:17:15;20.60;;;8.23;;
54945;SDS011;40846;44.788;20.486;2023-04-28T01:19:41;20.90;;;8.85;;
54945;SDS011;40846;44.788;20.486;2023-04-28T01:22:07;25.50;;;11.77;;
54945;SDS011;40846;44.788;20.486;2023-04-28T01:24:39;20.95;;;8.57;;
54945;SDS011;40846;44.788;20.486;2023-04-28T01:27:05;17.00;;;7.93;;
54945;SDS011;40846;44.788;20.486;2023-04-28T01:29:31;21.98;;;8.88;;
54945;SDS011;40846;44.788;20.486;2023-04-28T01:31:57;27.77;;;8.65;;
54945;SDS011;40846;44.788;20.486;2023-04-28T01:34:23;17.38;;;7.03;;
54945;SDS011;40846;44.788;20.486;2023-04-28T01:36:50;16.75;;;7.88;;
54945;SDS011;40846;44.788;20.486;2023-04-28T01:39:16;22.98;;;8.30;;
54945;SDS011;40846;44.788;20.486;2023-04-28T01:41:42;18.20;;;7.80;;
54945;SDS011;40846;44.788;20.486;2023-04-28T01:44:08;23.30;;;9.15;;
54945;SDS011;40846;44.788;20.486;2023-04-28T01:46:36;21.85;;;9.52;;
54945;SDS011;40846;44.788;20.486;2023-04-28T01:49:02;16.08;;;9.02;;
54945;SDS011;40846;44.788;20.486;2023-04-28T01:51:28;22.48;;;9.13;;
54945;SDS011;40846;44.788;20.486;2023-04-28T01:53:55;19.05;;;8.10;;
54945;SDS011;40846;44.788;20.486;2023-04-28T01:56:21;16.60;;;8.35;;
54945;SDS011;40846;44.788;20.486;2023-04-28T01:58:47;19.00;;;8.48;;
54945;SDS011;40846;44.788;20.486;2023-04-28T02:01:13;19.23;;;8.00;;
54945;SDS011;40846;44.788;20.486;2023-04-28T02:03:39;18.15;;;7.97;;
54945;SDS011;40846;44.788;20.486;2023-04-28T02:06:05;19.77;;;8.05;;
54945;SDS011;40846;44.788;20.486;2023-04-28T02:08:31;17.83;;;7.70;;
54945;SDS011;40846;44.788;20.486;2023-04-28T02:10:57;21.02;;;8.43;;
54945;SDS011;40846;44.788;20.486;2023-04-28T02:13:25;16.65;;;7.30;;
54945;SDS011;40846;44.788;20.486;2023-04-28T02:15:51;20.00;;;8.05;;
54945;SDS011;40846;44.788;20.486;2023-04-28T02:18:17;15.15;;;7.40;;
54945;SDS011;40846;44.788;20.486;2023-04-28T02:20:43;20.88;;;7.95;;
54945;SDS011;40846;44.788;20.486;2023-04-28T02:23:09;19.90;;;8.38;;
54945;SDS011;40846;44.788;20.486;2023-04-28T02:25:35;19.50;;;8.50;;
54945;SDS011;40846;44.788;20.486;2023-04-28T02:28:01;16.38;;;7.70;;
54945;SDS011;40846;44.788;20.486;2023-04-28T02:30:28;24.33;;;8.45;;
54945;SDS011;40846;44.788;20.486;2023-04-28T02:32:54;18.73;;;8.80;;
54945;SDS011;40846;44.788;20.486;2023-04-28T02:35:20;16.65;;;7.75;;
54945;SDS011;40846;44.788;20.486;2023-04-28T02:37:46;20.00;;;8.57;;
54945;SDS011;40846;44.788;20.486;2023-04-28T02:40:12;18.73;;;8.23;;
54945;SDS011;40846;44.788;20.486;2023-04-28T02:42:38;23.70;;;9.98;;
54945;SDS011;40846;44.788;20.486;2023-04-28T02:45:05;19.20;;;8.30;;
54945;SDS011;40846;44.788;20.486;2023-04-28T02:47:31;26.48;;;9.00;;
54945;SDS011;40846;44.788;20.486;2023-04-28T02:49:57;20.65;;;8.38;;
54945;SDS011;40846;44.788;20.486;2023-04-28T02:52:23;15.75;;;7.50;;
54945;SDS011;40846;44.788;20.486;2023-04-28T02:54:49;18.77;;;9.23;;
54945;SDS011;40846;44.788;20.486;2023-04-28T02:57:18;23.85;;;9.65;;
54945;SDS011;40846;44.788;20.486;2023-04-28T02:59:44;21.20;;;8.63;;
54945;SDS011;40846;44.788;20.486;2023-04-28T03:02:10;20.92;;;8.95;;
54945;SDS011;40846;44.788;20.486;2023-04-28T03:04:36;27.42;;;9.02;;
54945;SDS011;40846;44.788;20.486;2023-04-28T03:07:02;19.77;;;8.52;;
54945;SDS011;40846;44.788;20.486;2023-04-28T03:09:29;20.27;;;8.68;;
54945;SDS011;40846;44.788;20.486;2023-04-28T03:11:55;23.30;;;9.30;;
54945;SDS011;40846;44.788;20.486;2023-04-28T03:14:21;20.75;;;8.93;;
54945;SDS011;40846;44.788;20.486;2023-04-28T03:16:47;25.67;;;10.60;;
54945;SDS011;40846;44.788;20.486;2023-04-28T03:19:13;29.60;;;9.50;;
54945;SDS011;40846;44.788;20.486;2023-04-28T03:21:39;22.90;;;9.15;;
54945;SDS011;40846;44.788;20.486;2023-04-28T03:24:05;27.10;;;9.80;;
54945;SDS011;40846;44.788;20.486;2023-04-28T03:26:31;19.50;;;9.57;;
54945;SDS011;40846;44.788;20.486;2023-04-28T03:28:57;22.65;;;9.80;;
54945;SDS011;40846;44.788;20.486;2023-04-28T03:31:23;24.00;;;9.90;;
54945;SDS011;40846;44.788;20.486;2023-04-28T03:33:50;22.48;;;10.07;;
54945;SDS011;40846;44.788;20.486;2023-04-28T03:36:16;26.45;;;10.50;;
54945;SDS011;40846;44.788;20.486;2023-04-28T03:38:42;25.58;;;10.63;;
54945;SDS011;40846;44.788;20.486;2023-04-28T03:41:08;33.28;;;10.40;;
54945;SDS011;40846;44.788;20.486;2023-04-28T03:43:34;22.20;;;9.75;;
54945;SDS011;40846;44.788;20.486;2023-04-28T03:46:01;23.27;;;9.85;;
54945;SDS011;40846;44.788;20.486;2023-04-28T03:48:28;22.95;;;10.20;;
54945;SDS011;40846;44.788;20.486;2023-04-28T03:50:54;20.15;;;10.02;;
54945;SDS011;40846;44.788;20.486;2023-04-28T03:53:20;23.88;;;9.73;;
54945;SDS011;40846;44.788;20.486;2023-04-28T03:55:46;25.23;;;9.57;;
54945;SDS011;40846;44.788;20.486;2023-04-28T03:58:12;28.23;;;11.60;;
54945;SDS011;40846;44.788;20.486;2023-04-28T04:00:38;21.25;;;8.98;;
54945;SDS011;40846;44.788;20.486;2023-04-28T04:03:04;22.20;;;10.32;;
54945;SDS011;40846;44.788;20.486;2023-04-28T04:05:30;22.05;;;10.20;;
54945;SDS011;40846;44.788;20.486;2023-04-28T04:07:56;21.50;;;9.57;;
54945;SDS011;40846;44.788;20.486;2023-04-28T04:10:22;22.33;;;10.52;;
54945;SDS011;40846;44.788;20.486;2023-04-28T04:12:48;24.52;;;9.80;;
54945;SDS011;40846;44.788;20.486;2023-04-28T04:15:14;24.95;;;10.02;;
54945;SDS011;40846;44.788;20.486;2023-04-28T04:17:40;26.73;;;10.55;;
54945;SDS011;40846;44.788;20.486;2023-04-28T04:20:07;21.30;;;10.90;;
54945;SDS011;40846;44.788;20.486;2023-04-28T04:22:33;19.52;;;9.27;;
54945;SDS011;40846;44.788;20.486;2023-04-28T04:24:59;25.02;;;9.77;;
54945;SDS011;40846;44.788;20.486;2023-04-28T04:27:25;18.90;;;9.35;;
54945;SDS011;40846;44.788;20.486;2023-04-28T04:29:51;30.05;;;10.55;;
54945;SDS011;40846;44.788;20.486;2023-04-28T04:32:17;22.38;;;8.93;;
54945;SDS011;40846;44.788;20.486;2023-04-28T04:34:43;25.90;;;9.13;;
54945;SDS011;40846;44.788;20.486;2023-04-28T04:37:09;24.63;;;9.68;;
54945;SDS011;40846;44.788;20.486;2023-04-28T04:39:36;22.75;;;8.32;;
54945;SDS011;40846;44.788;20.486;2023-04-28T04:42:02;23.58;;;9.25;;
54945;SDS011;40846;44.788;20.486;2023-04-28T04:44:28;23.67;;;8.90;;
54945;SDS011;40846;44.788;20.486;2023-04-28T04:46:54;21.50;;;9.27;;
54945;SDS011;40846;44.788;20.486;2023-04-28T04:49:20;26.00;;;11.65;;
54945;SDS011;40846;44.788;20.486;2023-04-28T04:51:46;32.38;;;10.07;;
54945;SDS011;40846;44.788;20.486;2023-04-28T04:54:12;24.48;;;9.20;;
54945;SDS011;40846;44.788;20.486;2023-04-28T04:56:38;18.77;;;9.43;;
54945;SDS011;40846;44.788;20.486;2023-04-28T04:59:04;22.85;;;9.82;;
54945;SDS011;40846;44.788;20.486;2023-04-28T05:01:30;22.40;;;9.27;;
54945;SDS011;40846;44.788;20.486;2023-04-28T05:03:56;28.48;;;8.52;;
54945;SDS011;40846;44.788;20.486;2023-04-28T05:06:22;27.85;;;9.70;;
54945;SDS011;40846;44.788;20.486;2023-04-28T05:08:48;22.38;;;9.32;;
54945;SDS011;40846;44.788;20.486;2023-04-28T05:11:14;21.80;;;9.35;;
54945;SDS011;40846;44.788;20.486;2023-04-28T05:13:40;25.48;;;9.40;;
54945;SDS011;40846;44.788;20.486;2023-04-28T05:16:06;30.17;;;8.93;;
54945;SDS011;40846;44.788;20.486;2023-04-28T05:18:33;33.70;;;10.10;;
54945;SDS011;40846;44.788;20.486;2023-04-28T05:20:59;25.27;;;9.95;;
54945;SDS011;40846;44.788;20.486;2023-04-28T05:23:25;24.90;;;8.00;;
54945;SDS011;40846;44.788;20.486;2023-04-28T05:25:51;17.08;;;7.63;;
54945;SDS011;40846;44.788;20.486;2023-04-28T05:28:20;22.65;;;8.30;;
54945;SDS011;40846;44.788;20.486;2023-04-28T05:30:46;20.42;;;7.07;;
54945;SDS011;40846;44.788;20.486;2023-04-28T05:33:12;17.60;;;6.90;;
54945;SDS011;40846;44.788;20.486;2023-04-28T05:35:38;23.27;;;7.53;;
54945;SDS011;40846;44.788;20.486;2023-04-28T05:38:04;14.25;;;6.43;;
54945;SDS011;40846;44.788;20.486;2023-04-28T05:40:31;20.35;;;6.45;;
54945;SDS011;40846;44.788;20.486;2023-04-28T05:42:57;15.15;;;6.15;;
54945;SDS011;40846;44.788;20.486;2023-04-28T05:45:23;11.38;;;5.03;;
54945;SDS011;40846;44.788;20.486;2023-04-28T05:47:49;16.40;;;5.50;;
54945;SDS011;40846;44.788;20.486;2023-04-28T05:50:15;22.50;;;6.20;;
54945;SDS011;40846;44.788;20.486;2023-04-28T05:52:41;11.15;;;5.40;;
54945;SDS011;40846;44.788;20.486;2023-04-28T05:55:07;14.45;;;5.32;;
54945;SDS011;40846;44.788;20.486;2023-04-28T05:57:34;14.10;;;5.72;;
54945;SDS011;40846;44.788;20.486;2023-04-28T06:00:00;21.38;;;5.03;;
54945;SDS011;40846;44.788;20.486;2023-04-28T06:02:26;12.88;;;4.93;;
54945;SDS011;40846;44.788;20.486;2023-04-28T06:04:51;19.55;;;5.45;;
54945;SDS011;40846;44.788;20.486;2023-04-28T06:07:17;11.38;;;5.05;;
54945;SDS011;40846;44.788;20.486;2023-04-28T06:09:43;15.13;;;5.60;;
54945;SDS011;40846;44.788;20.486;2023-04-28T06:12:08;16.13;;;4.55;;
54945;SDS011;40846;44.788;20.486;2023-04-28T06:14:34;10.93;;;4.45;;
54945;SDS011;40846;44.788;20.486;2023-04-28T06:17:02;19.30;;;4.10;;
54945;SDS011;40846;44.788;20.486;2023-04-28T06:19:28;10.27;;;4.15;;
54945;SDS011;40846;44.788;20.486;2023-04-28T06:21:54;10.55;;;3.88;;
54945;SDS011;40846;44.788;20.486;2023-04-28T06:24:19;10.48;;;4.63;;
54945;SDS011;40846;44.788;20.486;2023-04-28T06:26:45;21.67;;;4.88;;
54945;SDS011;40846;44.788;20.486;2023-04-28T06:29:11;12.90;;;4.43;;
54945;SDS011;40846;44.788;20.486;2023-04-28T06:31:37;15.88;;;4.88;;
54945;SDS011;40846;44.788;20.486;2023-04-28T06:34:03;21.05;;;4.22;;
54945;SDS011;40846;44.788;20.486;2023-04-28T06:36:29;9.10;;;3.97;;
54945;SDS011;40846;44.788;20.486;2023-04-28T06:38:55;11.10;;;4.35;;
54945;SDS011;40846;44.788;20.486;2023-04-28T06:41:21;13.15;;;4.68;;
54945;SDS011;40846;44.788;20.486;2023-04-28T06:43:47;11.60;;;4.60;;
54945;SDS011;40846;44.788;20.486;2023-04-28T06:46:12;14.88;;;4.25;;
54945;SDS011;40846;44.788;20.486;2023-04-28T06:48:38;12.27;;;3.67;;
54945;SDS011;40846;44.788;20.486;2023-04-28T06:51:04;11.10;;;4.25;;
54945;SDS011;40846;44.788;20.486;2023-04-28T06:53:31;9.82;;;4.32;;
54945;SDS011;40846;44.788;20.486;2023-04-28T06:55:57;17.63;;;4.15;;
54945;SDS011;40846;44.788;20.486;2023-04-28T06:58:23;11.18;;;4.32;;
54945;SDS011;40846;44.788;20.486;2023-04-28T07:00:49;12.60;;;3.13;;
54945;SDS011;40846;44.788;20.486;2023-04-28T07:03:17;11.95;;;3.83;;
54945;SDS011;40846;44.788;20.486;2023-04-28T07:05:43;10.23;;;3.10;;
54945;SDS011;40846;44.788;20.486;2023-04-28T07:08:09;11.60;;;3.45;;
54945;SDS011;40846;44.788;20.486;2023-04-28T07:10:35;8.80;;;3.10;;
54945;SDS011;40846;44.788;20.486;2023-04-28T07:13:03;13.93;;;3.17;;
54945;SDS011;40846;44.788;20.486;2023-04-28T07:15:29;13.65;;;3.20;;
54945;SDS011;40846;44.788;20.486;2023-04-28T07:17:55;11.65;;;3.25;;
54945;SDS011;40846;44.788;20.486;2023-04-28T07:20:21;10.65;;;3.20;;
54945;SDS011;40846;44.788;20.486;2023-04-28T07:22:47;9.75;;;3.25;;
54945;SDS011;40846;44.788;20.486;2023-04-28T07:25:12;6.93;;;2.90;;
54945;SDS011;40846;44.788;20.486;2023-04-28T07:27:38;7.85;;;2.78;;
54945;SDS011;40846;44.788;20.486;2023-04-28T07:30:04;15.80;;;3.70;;
54945;SDS011;40846;44.788;20.486;2023-04-28T07:32:30;14.00;;;4.28;;
54945;SDS011;40846;44.788;20.486;2023-04-28T07:34:56;6.38;;;2.80;;
54945;SDS011;40846;44.788;20.486;2023-04-28T07:37:21;11.85;;;4.00;;
54945;SDS011;40846;44.788;20.486;2023-04-28T07:39:47;8.52;;;3.10;;
54945;SDS011;40846;44.788;20.486;2023-04-28T07:42:13;15.27;;;3.80;;
54945;SDS011;40846;44.788;20.486;2023-04-28T07:44:39;7.15;;;2.85;;
54945;SDS011;40846;44.788;20.486;2023-04-28T07:47:04;14.90;;;3.55;;
54945;SDS011;40846;44.788;20.486;2023-04-28T07:49:30;4.85;;;2.40;;
54945;SDS011;40846;44.788;20.486;2023-04-28T07:51:57;10.68;;;3.00;;
54945;SDS011;40846;44.788;20.486;2023-04-28T07:54:23;8.40;;;3.08;;
54945;SDS011;40846;44.788;20.486;2023-04-28T07:56:49;11.70;;;3.30;;
54945;SDS011;40846;44.788;20.486;2023-04-28T07:59:15;8.02;;;3.10;;
54945;SDS011;40846;44.788;20.486;2023-04-28T08:01:40;15.50;;;3.25;;
54945;SDS011;40846;44.788;20.486;2023-04-28T08:04:07;8.25;;;2.88;;
54945;SDS011;40846;44.788;20.486;2023-04-28T08:06:32;9.00;;;2.90;;
54945;SDS011;40846;44.788;20.486;2023-04-28T08:09:00;8.55;;;2.53;;
54945;SDS011;40846;44.788;20.486;2023-04-28T08:11:26;9.00;;;2.70;;
54945;SDS011;40846;44.788;20.486;2023-04-28T08:13:52;7.03;;;2.30;;
54945;SDS011;40846;44.788;20.486;2023-04-28T08:16:18;10.00;;;2.65;;
54945;SDS011;40846;44.788;20.486;2023-04-28T08:18:44;6.05;;;2.38;;
54945;SDS011;40846;44.788;20.486;2023-04-28T08:21:10;11.93;;;2.40;;
54945;SDS011;40846;44.788;20.486;2023-04-28T08:23:36;8.43;;;2.00;;
54945;SDS011;40846;44.788;20.486;2023-04-28T08:26:02;16.17;;;2.33;;
54945;SDS011;40846;44.788;20.486;2023-04-28T08:28:28;7.15;;;2.28;;
54945;SDS011;40846;44.788;20.486;2023-04-28T08:30:55;11.27;;;2.50;;
54945;SDS011;40846;44.788;20.486;2023-04-28T08:33:22;5.05;;;2.30;;
54945;SDS011;40846;44.788;20.486;2023-04-28T08:35:49;10.25;;;2.60;;
54945;SDS011;40846;44.788;20.486;2023-04-28T08:38:15;9.68;;;2.42;;
54945;SDS011;40846;44.788;20.486;2023-04-28T08:40:42;18.85;;;3.10;;
54945;SDS011;40846;44.788;20.486;2023-04-28T08:43:08;10.63;;;2.70;;
54945;SDS011;40846;44.788;20.486;2023-04-28T08:45:39;6.15;;;1.83;;
54945;SDS011;40846;44.788;20.486;2023-04-28T08:48:09;6.07;;;1.80;;
54945;SDS011;40846;44.788;20.486;2023-04-28T08:50:38;9.45;;;2.08;;
54945;SDS011;40846;44.788;20.486;2023-04-28T08:53:07;10.68;;;1.98;;
54945;SDS011;40846;44.788;20.486;2023-04-28T08:55:35;7.45;;;2.05;;
54945;SDS011;40846;44.788;20.486;2023-04-28T08:58:01;4.72;;;1.65;;
54945;SDS011;40846;44.788;20.486;2023-04-28T09:00:28;8.35;;;2.20;;
54945;SDS011;40846;44.788;20.486;2023-04-28T09:02:54;9.10;;;2.17;;
54945;SDS011;40846;44.788;20.486;2023-04-28T09:05:20;8.13;;;2.08;;
54945;SDS011;40846;44.788;20.486;2023-04-28T09:07:46;6.25;;;1.92;;
54945;SDS011;40846;44.788;20.486;2023-04-28T09:10:19;4.93;;;1.77;;
54945;SDS011;40846;44.788;20.486;2023-04-28T09:12:47;7.63;;;2.25;;
54945;SDS011;40846;44.788;20.486;2023-04-28T09:15:35;5.65;;;2.40;;
54945;SDS011;40846;44.788;20.486;2023-04-28T09:18:01;5.93;;;2.38;;
54945;SDS011;40846;44.788;20.486;2023-04-28T09:20:28;4.35;;;1.60;;
54945;SDS011;40846;44.788;20.486;2023-04-28T09:22:55;5.15;;;1.85;;
54945;SDS011;40846;44.788;20.486;2023-04-28T09:25:22;3.88;;;1.85;;
54945;SDS011;40846;44.788;20.486;2023-04-28T09:27:50;6.07;;;2.20;;
54945;SDS011;40846;44.788;20.486;2023-04-28T09:33:23;5.35;;;2.25;;
54945;SDS011;40846;44.788;20.486;2023-04-28T09:35:49;9.18;;;2.10;;
54945;SDS011;40846;44.788;20.486;2023-04-28T09:43:29;6.18;;;2.70;;
54945;SDS011;40846;44.788;20.486;2023-04-28T09:45:56;6.38;;;2.20;;
54945;SDS011;40846;44.788;20.486;2023-04-28T09:48:26;7.20;;;1.80;;
54945;SDS011;40846;44.788;20.486;2023-04-28T09:50:53;4.82;;;1.83;;
54945;SDS011;40846;44.788;20.486;2023-04-28T09:53:28;7.20;;;2.03;;
54945;SDS011;40846;44.788;20.486;2023-04-28T09:55:58;5.97;;;2.20;;
54945;SDS011;40846;44.788;20.486;2023-04-28T09:58:26;9.93;;;2.10;;
54945;SDS011;40846;44.788;20.486;2023-04-28T10:00:54;7.20;;;2.65;;
54945;SDS011;40846;44.788;20.486;2023-04-28T10:03:25;8.98;;;2.67;;
54945;SDS011;40846;44.788;20.486;2023-04-28T10:05:52;5.47;;;2.30;;
54945;SDS011;40846;44.788;20.486;2023-04-28T10:08:21;10.10;;;2.83;;
54945;SDS011;40846;44.788;20.486;2023-04-28T10:10:48;5.68;;;2.30;;
54945;SDS011;40846;44.788;20.486;2023-04-28T10:13:17;5.55;;;2.42;;
54945;SDS011;40846;44.788;20.486;2023-04-28T10:15:46;7.03;;;2.75;;
54945;SDS011;40846;44.788;20.486;2023-04-28T10:18:12;10.10;;;3.20;;
54945;SDS011;40846;44.788;20.486;2023-04-28T10:20:52;11.20;;;2.63;;
54945;SDS011;40846;44.788;20.486;2023-04-28T10:26:11;8.38;;;2.28;;
54945;SDS011;40846;44.788;20.486;2023-04-28T10:28:48;10.73;;;2.25;;
54945;SDS011;40846;44.788;20.486;2023-04-28T10:31:16;13.18;;;3.08;;
54945;SDS011;40846;44.788;20.486;2023-04-28T10:33:53;5.50;;;2.13;;
54945;SDS011;40846;44.788;20.486;2023-04-28T10:56:08;5.35;;;2.20;;
54945;SDS011;40846;44.788;20.486;2023-04-28T10:58:35;7.28;;;2.70;;
54945;SDS011;40846;44.788;20.486;2023-04-28T11:06:33;10.95;;;2.78;;
54945;SDS011;40846;44.788;20.486;2023-04-28T11:09:01;6.80;;;2.78;;
54945;SDS011;40846;44.788;20.486;2023-04-28T11:11:30;7.97;;;2.60;;
54945;SDS011;40846;44.788;20.486;2023-04-28T11:19:17;7.07;;;2.35;;
54945;SDS011;40846;44.788;20.486;2023-04-28T11:21:44;5.20;;;2.28;;
54945;SDS011;40846;44.788;20.486;2023-04-28T11:24:12;5.05;;;2.22;;
54945;SDS011;40846;44.788;20.486;2023-04-28T11:26:38;6.43;;;2.50;;
54945;SDS011;40846;44.788;20.486;2023-04-28T11:29:06;8.25;;;2.35;;
54945;SDS011;40846;44.788;20.486;2023-04-28T11:31:46;9.93;;;2.72;;
54945;SDS011;40846;44.788;20.486;2023-04-28T11:34:18;5.05;;;2.17;;
54945;SDS011;40846;44.788;20.486;2023-04-28T11:36:44;8.43;;;2.90;;
54945;SDS011;40846;44.788;20.486;2023-04-28T11:39:11;8.90;;;2.78;;
54945;SDS011;40846;44.788;20.486;2023-04-28T11:41:38;8.60;;;2.90;;
54945;SDS011;40846;44.788;20.486;2023-04-28T11:44:09;5.13;;;2.08;;
54945;SDS011;40846;44.788;20.486;2023-04-28T11:46:43;9.98;;;3.03;;
54945;SDS011;40846;44.788;20.486;2023-04-28T11:52:34;7.95;;;2.67;;
54945;SDS011;40846;44.788;20.486;2023-04-28T11:55:20;8.02;;;2.60;;
54945;SDS011;40846;44.788;20.486;2023-04-28T11:57:47;12.40;;;3.38;;
54945;SDS011;40846;44.788;20.486;2023-04-28T12:00:13;7.35;;;3.00;;
54945;SDS011;40846;44.788;20.486;2023-04-28T12:02:46;10.75;;;3.00;;
54945;SDS011;40846;44.788;20.486;2023-04-28T12:05:15;7.05;;;2.80;;
54945;SDS011;40846;44.788;20.486;2023-04-28T12:07:41;5.93;;;2.80;;
54945;SDS011;40846;44.788;20.486;2023-04-28T12:10:11;9.60;;;2.90;;
54945;SDS011;40846;44.788;20.486;2023-04-28T12:12:39;9.98;;;3.30;;
54945;SDS011;40846;44.788;20.486;2023-04-28T12:15:06;11.20;;;3.05;;
54945;SDS011;40846;44.788;20.486;2023-04-28T12:17:39;11.90;;;3.50;;
54945;SDS011;40846;44.788;20.486;2023-04-28T12:20:08;7.28;;;3.35;;
54945;SDS011;40846;44.788;20.486;2023-04-28T12:23:08;7.25;;;2.75;;
54945;SDS011;40846;44.788;20.486;2023-04-28T12:25:30;13.35;;;3.05;;
54945;SDS011;40846;44.788;20.486;2023-04-28T12:28:05;6.18;;;2.95;;
54945;SDS011;40846;44.788;20.486;2023-04-28T12:30:35;7.20;;;2.90;;
54945;SDS011;40846;44.788;20.486;2023-04-28T12:33:21;6.75;;;2.58;;
54945;SDS011;40846;44.788;20.486;2023-04-28T12:35:48;6.80;;;2.58;;
54945;SDS011;40846;44.788;20.486;2023-04-28T12:38:14;5.93;;;2.58;;
54945;SDS011;40846;44.788;20.486;2023-04-28T12:40:50;11.48;;;3.85;;
54945;SDS011;40846;44.788;20.486;2023-04-28T12:43:16;14.02;;;3.35;;
54945;SDS011;40846;44.788;20.486;2023-04-28T12:45:42;7.70;;;2.90;;
54945;SDS011;40846;44.788;20.486;2023-04-28T12:48:10;6.63;;;2.90;;
54945;SDS011;40846;44.788;20.486;2023-04-28T12:50:36;8.68;;;2.60;;
54945;SDS011;40846;44.788;20.486;2023-04-28T12:53:02;6.45;;;2.85;;
54945;SDS011;40846;44.788;20.486;2023-04-28T12:55:29;7.32;;;2.90;;
54945;SDS011;40846;44.788;20.486;2023-04-28T12:57:55;11.18;;;2.80;;
54945;SDS011;40846;44.788;20.486;2023-04-28T13:00:21;8.65;;;3.28;;
54945;SDS011;40846;44.788;20.486;2023-04-28T13:02:49;14.30;;;3.00;;
54945;SDS011;40846;44.788;20.486;2023-04-28T13:05:15;9.15;;;3.42;;
54945;SDS011;40846;44.788;20.486;2023-04-28T13:07:43;6.93;;;3.13;;
54945;SDS011;40846;44.788;20.486;2023-04-28T13:10:09;14.60;;;2.60;;
54945;SDS011;40846;44.788;20.486;2023-04-28T13:12:35;12.07;;;2.40;;
54945;SDS011;40846;44.788;20.486;2023-04-28T13:15:02;10.43;;;3.28;;
54945;SDS011;40846;44.788;20.486;2023-04-28T13:17:28;8.20;;;3.53;;
54945;SDS011;40846;44.788;20.486;2023-04-28T13:19:54;10.00;;;2.78;;
54945;SDS011;40846;44.788;20.486;2023-04-28T13:22:21;9.32;;;3.28;;
54945;SDS011;40846;44.788;20.486;2023-04-28T13:24:47;5.78;;;2.80;;
54945;SDS011;40846;44.788;20.486;2023-04-28T13:27:13;8.90;;;2.70;;
54945;SDS011;40846;44.788;20.486;2023-04-28T13:29:39;10.15;;;2.83;;
54945;SDS011;40846;44.788;20.486;2023-04-28T13:32:05;7.03;;;2.88;;
54945;SDS011;40846;44.788;20.486;2023-04-28T13:34:32;10.35;;;2.97;;
54945;SDS011;40846;44.788;20.486;2023-04-28T13:36:58;9.50;;;2.95;;
54945;SDS011;40846;44.788;20.486;2023-04-28T13:39:24;7.68;;;2.50;;
54945;SDS011;40846;44.788;20.486;2023-04-28T13:41:50;7.97;;;3.42;;
54945;SDS011;40846;44.788;20.486;2023-04-28T13:44:16;7.13;;;2.38;;
54945;SDS011;40846;44.788;20.486;2023-04-28T13:46:42;7.57;;;2.65;;
54945;SDS011;40846;44.788;20.486;2023-04-28T13:49:10;9.73;;;2.67;;
54945;SDS011;40846;44.788;20.486;2023-04-28T13:51:37;9.60;;;2.83;;
54945;SDS011;40846;44.788;20.486;2023-04-28T13:54:03;11.38;;;2.72;;
54945;SDS011;40846;44.788;20.486;2023-04-28T13:56:32;14.43;;;2.70;;
54945;SDS011;40846;44.788;20.486;2023-04-28T13:59:00;7.75;;;2.95;;
54945;SDS011;40846;44.788;20.486;2023-04-28T14:01:33;8.35;;;2.72;;
54945;SDS011;40846;44.788;20.486;2023-04-28T14:04:00;6.25;;;2.80;;
54945;SDS011;40846;44.788;20.486;2023-04-28T14:06:26;5.10;;;2.30;;
54945;SDS011;40846;44.788;20.486;2023-04-28T14:08:57;6.55;;;3.08;;
54945;SDS011;40846;44.788;20.486;2023-04-28T14:11:26;8.90;;;2.38;;
54945;SDS011;40846;44.788;20.486;2023-04-28T14:13:53;10.13;;;2.67;;
54945;SDS011;40846;44.788;20.486;2023-04-28T14:16:36;7.80;;;2.88;;
54945;SDS011;40846;44.788;20.486;2023-04-28T14:19:13;7.43;;;2.22;;
54945;SDS011;40846;44.788;20.486;2023-04-28T14:21:42;6.85;;;2.55;;
54945;SDS011;40846;44.788;20.486;2023-04-28T14:24:08;6.57;;;2.20;;
54945;SDS011;40846;44.788;20.486;2023-04-28T14:26:37;6.03;;;2.45;;
54945;SDS011;40846;44.788;20.486;2023-04-28T14:29:03;11.35;;;4.25;;
54945;SDS011;40846;44.788;20.486;2023-04-28T14:31:29;10.63;;;2.92;;
54945;SDS011;40846;44.788;20.486;2023-04-28T14:33:56;6.18;;;2.60;;
54945;SDS011;40846;44.788;20.486;2023-04-28T14:36:22;8.20;;;3.17;;
54945;SDS011;40846;44.788;20.486;2023-04-28T14:38:48;6.68;;;2.53;;
54945;SDS011;40846;44.788;20.486;2023-04-28T14:41:14;6.95;;;2.83;;
54945;SDS011;40846;44.788;20.486;2023-04-28T14:43:40;7.47;;;2.78;;
54945;SDS011;40846;44.788;20.486;2023-04-28T14:46:07;8.80;;;2.63;;
54945;SDS011;40846;44.788;20.486;2023-04-28T14:48:33;6.90;;;2.78;;
54945;SDS011;40846;44.788;20.486;2023-04-28T14:51:00;6.80;;;3.20;;
54945;SDS011;40846;44.788;20.486;2023-04-28T14:53:26;4.50;;;2.42;;
54945;SDS011;40846;44.788;20.486;2023-04-28T14:55:54;13.82;;;3.20;;
54945;SDS011;40846;44.788;20.486;2023-04-28T14:58:20;8.68;;;3.03;;
54945;SDS011;40846;44.788;20.486;2023-04-28T15:00:46;9.95;;;2.92;;
54945;SDS011;40846;44.788;20.486;2023-04-28T15:03:12;9.77;;;4.20;;
54945;SDS011;40846;44.788;20.486;2023-04-28T15:05:39;6.80;;;2.72;;
54945;SDS011;40846;44.788;20.486;2023-04-28T15:08:05;6.32;;;3.00;;
54945;SDS011;40846;44.788;20.486;2023-04-28T15:10:35;7.53;;;2.60;;